Time;durP1;ratioP1;P1;durP2;ratioP2;P2;SDS_P1;SDS_P2;PMS_P1;PMS_P2;Temp;Humidity;BMP_temperature;BMP_pressure;BME280_temperature;BME280_humidity;BME280_pressure;Samples;Min_cycle;Max_cycle;Signal;HPM_P1;HPM_P2
2022/01/14 00:01:05;;;;;;;49.10;21.95;;;1.70;99.90;;;;;;5069732;28;20062;-79
2022/01/14 00:03:31;;;;;;;46.17;21.77;;;1.70;99.90;;;;;;5086686;28;20028;-79
2022/01/14 00:05:57;;;;;;;43.22;20.00;;;1.60;99.90;;;;;;5069817;28;20066;-79
2022/01/14 00:08:22;;;;;;;47.28;21.05;;;1.60;99.90;;;;;;5086207;28;20017;-79
2022/01/14 00:10:49;;;;;;;44.65;21.27;;;1.60;99.90;;;;;;5086294;28;20304;-79
2022/01/14 00:16:03;;;;;;;45.88;21.02;;;1.60;99.90;;;;;;5086332;28;20089;-79
2022/01/14 00:18:28;;;;;;;47.08;21.70;;;1.50;99.90;;;;;;5086515;28;20078;-79
2022/01/14 00:20:54;;;;;;;47.55;22.20;;;1.40;99.90;;;;;;5085983;28;20060;-79
2022/01/14 00:23:27;;;;;;;46.67;22.33;;;1.40;99.90;;;;;;5084945;28;20319;-79
2022/01/14 00:34:12;;;;;;;46.53;23.30;;;1.50;99.90;;;;;;5072248;28;20025;-79
2022/01/14 00:36:39;;;;;;;52.25;21.75;;;1.40;99.90;;;;;;5085676;28;20024;-79
2022/01/14 00:39:07;;;;;;;46.72;22.17;;;1.30;99.90;;;;;;5085415;28;20066;-79
2022/01/14 00:41:34;;;;;;;44.58;21.65;;;1.30;99.90;;;;;;5086437;28;20024;-79
2022/01/14 00:44:02;;;;;;;40.92;20.60;;;1.30;99.90;;;;;;5085966;28;20020;-79
2022/01/14 00:46:28;;;;;;;42.03;20.52;;;1.40;99.90;;;;;;5085540;28;20415;-79
2022/01/14 00:48:54;;;;;;;43.88;20.75;;;1.40;99.90;;;;;;5085301;28;20016;-80
2022/01/14 00:51:20;;;;;;;54.38;21.30;;;1.40;99.90;;;;;;5086576;28;20309;-79
2022/01/14 00:53:45;;;;;;;40.95;21.33;;;1.40;99.90;;;;;;5069103;28;20021;-79
2022/01/14 01:01:48;;;;;;;49.47;21.20;;;1.30;99.90;;;;;;5085496;28;20036;-79
2022/01/14 01:04:15;;;;;;;43.65;20.70;;;1.30;99.90;;;;;;5069173;28;20046;-79
2022/01/14 01:06:41;;;;;;;39.15;19.77;;;1.20;99.90;;;;;;5086405;28;20021;-79
2022/01/14 01:09:11;;;;;;;45.60;20.23;;;1.20;99.90;;;;;;5085587;28;20023;-79
2022/01/14 01:11:41;;;;;;;48.78;22.20;;;1.10;99.90;;;;;;5085120;28;20048;-79
2022/01/14 01:14:12;;;;;;;49.75;24.10;;;1.00;99.90;;;;;;5086349;28;20024;-79
2022/01/14 01:16:39;;;;;;;52.65;24.50;;;0.90;99.90;;;;;;5085034;28;20028;-79
2022/01/14 01:19:05;;;;;;;37.53;19.25;;;1.10;99.90;;;;;;5085298;28;20033;-79
2022/01/14 01:21:31;;;;;;;39.80;19.85;;;1.10;99.90;;;;;;5085747;28;20045;-79
2022/01/14 01:23:57;;;;;;;43.63;20.10;;;1.10;99.90;;;;;;5066911;28;20219;-79
2022/01/14 01:26:31;;;;;;;41.88;20.60;;;1.10;99.90;;;;;;5068099;28;20020;-79
2022/01/14 01:29:04;;;;;;;36.67;19.08;;;1.20;99.90;;;;;;5069121;28;20040;-79
2022/01/14 01:31:38;;;;;;;37.42;18.33;;;1.30;99.90;;;;;;5084759;28;20303;-79
2022/01/14 01:34:14;;;;;;;39.55;19.67;;;1.30;99.90;;;;;;5085955;28;20194;-78
2022/01/14 01:36:42;;;;;;;45.88;21.17;;;1.20;99.90;;;;;;5067844;28;20095;-79
2022/01/14 01:39:11;;;;;;;46.92;20.02;;;1.20;99.90;;;;;;5084371;28;20035;-79
2022/01/14 01:41:41;;;;;;;40.05;19.63;;;1.20;99.90;;;;;;5085704;28;20044;-79
2022/01/14 01:44:07;;;;;;;35.33;18.58;;;1.20;99.90;;;;;;5068085;28;20024;-79
2022/01/14 01:46:38;;;;;;;42.47;19.42;;;1.10;99.90;;;;;;5084255;28;20207;-79
2022/01/14 01:49:05;;;;;;;41.92;20.52;;;1.00;99.90;;;;;;5084628;28;20020;-80
2022/01/14 01:51:31;;;;;;;40.88;19.77;;;1.00;99.90;;;;;;5051271;28;20032;-78
2022/01/14 01:53:57;;;;;;;36.72;19.27;;;1.10;99.90;;;;;;5084158;28;20020;-79
2022/01/14 01:56:23;;;;;;;45.97;22.40;;;1.10;99.90;;;;;;5084213;28;20096;-79
2022/01/14 01:58:49;;;;;;;41.78;20.85;;;1.10;99.90;;;;;;5067726;28;20013;-79
2022/01/14 02:01:15;;;;;;;45.13;20.60;;;1.10;99.90;;;;;;5067576;28;20293;-78
2022/01/14 02:03:40;;;;;;;47.95;21.33;;;1.10;99.90;;;;;;5084429;28;20024;-79
2022/01/14 02:06:07;;;;;;;45.67;21.10;;;1.10;99.90;;;;;;5086166;28;20304;-79
2022/01/14 02:08:33;;;;;;;39.70;19.08;;;1.00;99.90;;;;;;5087621;28;20023;-79
2022/01/14 02:11:00;;;;;;;40.17;19.88;;;1.00;99.90;;;;;;5092047;28;20020;-79
2022/01/14 02:13:26;;;;;;;42.03;20.15;;;1.00;99.90;;;;;;5094266;28;20043;-79
2022/01/14 02:19:12;;;;;;;38.13;18.02;;;1.10;99.90;;;;;;5079171;28;20316;-79
2022/01/14 02:24:34;;;;;;;40.05;18.02;;;1.20;99.90;;;;;;5074273;28;20019;-79
2022/01/14 02:26:56;;;;;;;40.97;19.20;;;1.20;99.90;;;;;;5076215;28;20028;-79
2022/01/14 02:29:22;;;;;;;44.35;18.95;;;1.20;99.90;;;;;;5072078;28;20024;-79
2022/01/14 02:31:49;;;;;;;38.83;19.25;;;1.10;99.90;;;;;;5087087;28;20021;-80
2022/01/14 02:34:16;;;;;;;40.47;20.33;;;1.00;99.90;;;;;;5086983;28;20039;-79
2022/01/14 02:36:44;;;;;;;35.22;18.20;;;1.00;99.90;;;;;;5051673;28;20087;-79
2022/01/14 02:39:11;;;;;;;44.63;20.33;;;1.00;99.90;;;;;;5083675;28;20023;-79
2022/01/14 02:41:40;;;;;;;40.25;19.40;;;1.00;99.90;;;;;;5083634;28;20245;-79
2022/01/14 02:44:12;;;;;;;39.20;17.92;;;1.00;99.90;;;;;;5067148;28;20020;-79
2022/01/14 02:46:42;;;;;;;39.10;17.38;;;1.10;99.90;;;;;;5083113;28;20114;-79
2022/01/14 02:49:08;;;;;;;44.53;18.45;;;1.10;99.90;;;;;;5067378;28;20266;-79
2022/01/14 02:51:34;;;;;;;38.08;18.35;;;1.20;99.90;;;;;;5066545;28;20024;-79
2022/01/14 02:54:21;;;;;;;39.92;17.73;;;1.10;99.90;;;;;;5050193;28;20039;-79
2022/01/14 02:56:48;;;;;;;37.33;18.40;;;1.10;99.90;;;;;;5083319;28;20019;-79
2022/01/14 02:59:17;;;;;;;39.47;17.77;;;1.10;99.90;;;;;;5083311;28;20032;-79
2022/01/14 03:01:45;;;;;;;37.97;19.00;;;1.10;99.90;;;;;;5084257;28;20091;-79
2022/01/14 03:04:13;;;;;;;38.90;18.40;;;1.10;99.90;;;;;;5083922;28;20065;-79
2022/01/14 03:06:39;;;;;;;49.00;18.70;;;1.00;99.90;;;;;;5050294;28;20357;-79
2022/01/14 03:09:06;;;;;;;39.17;19.00;;;0.90;99.90;;;;;;5082642;28;20207;-79
2022/01/14 03:11:39;;;;;;;39.15;17.60;;;0.90;99.90;;;;;;5083040;28;20028;-79
2022/01/14 03:14:05;;;;;;;45.97;20.13;;;1.00;99.90;;;;;;5066886;28;20303;-79
2022/01/14 03:16:38;;;;;;;37.70;18.00;;;1.00;99.90;;;;;;5066377;28;20219;-78
2022/01/14 03:19:10;;;;;;;40.47;18.20;;;1.00;99.90;;;;;;5084020;28;20028;-79
2022/01/14 03:21:40;;;;;;;;;;;1.00;99.90;;;;;;5067038;28;20048;-79
2022/01/14 03:26:52;;;;;;;38.97;17.73;;;1.00;99.90;;;;;;5082237;28;20054;-79
2022/01/14 03:29:19;;;;;;;32.53;17.00;;;1.00;99.90;;;;;;5082793;28;20096;-79
2022/01/14 03:31:46;;;;;;;40.78;18.92;;;1.00;99.90;;;;;;5066010;28;20028;-81
2022/01/14 03:34:12;;;;;;;39.42;18.90;;;0.90;99.90;;;;;;5083854;28;20025;-79
2022/01/14 03:36:38;;;;;;;95.20;30.60;;;0.90;99.90;;;;;;5066040;28;20032;-79
2022/01/14 03:39:05;;;;;;;41.30;19.95;;;0.80;99.90;;;;;;5083299;28;20020;-79
2022/01/14 03:41:31;;;;;;;44.13;20.00;;;0.70;99.90;;;;;;5065926;28;20031;-80
2022/01/14 03:43:56;;;;;;;35.80;18.05;;;0.70;99.90;;;;;;5083978;28;20025;-79
2022/01/14 03:46:22;;;;;;;44.50;18.63;;;0.70;99.90;;;;;;5083747;28;20012;-79
2022/01/14 03:48:52;;;;;;;41.88;19.77;;;0.70;99.90;;;;;;5065961;28;20031;-79
2022/01/14 03:51:19;;;;;;;39.60;18.83;;;0.70;99.90;;;;;;5082721;28;20095;-79
2022/01/14 03:53:47;;;;;;;46.70;19.48;;;0.80;99.90;;;;;;5082730;28;20012;-79
2022/01/14 03:56:13;;;;;;;38.78;19.15;;;0.70;99.90;;;;;;5083772;28;20016;-79
2022/01/14 03:58:39;;;;;;;47.70;21.17;;;0.70;99.90;;;;;;5066023;28;20101;-79
2022/01/14 04:01:07;;;;;;;40.30;19.13;;;0.80;99.90;;;;;;5049265;28;20048;-79
2022/01/14 04:03:33;;;;;;;39.53;19.80;;;0.80;99.90;;;;;;5082713;28;20299;-79
2022/01/14 04:05:59;;;;;;;36.15;17.92;;;0.80;99.90;;;;;;5083834;28;20023;-79
2022/01/14 04:08:25;;;;;;;38.92;18.38;;;0.80;99.90;;;;;;5082966;28;20027;-79
2022/01/14 04:10:53;;;;;;;37.22;19.33;;;0.70;99.90;;;;;;5083617;28;20032;-79
2022/01/14 04:13:34;;;;;;;42.00;18.80;;;0.80;99.90;;;;;;5082681;28;20024;-79
2022/01/14 04:16:00;;;;;;;40.03;19.43;;;0.70;99.90;;;;;;5067096;28;20020;-79
2022/01/14 04:18:26;;;;;;;41.80;19.30;;;0.70;99.90;;;;;;5082375;28;20063;-79
2022/01/14 04:20:52;;;;;;;43.55;18.00;;;0.80;99.90;;;;;;5082187;28;20056;-79
2022/01/14 04:23:20;;;;;;;39.67;18.90;;;0.70;99.90;;;;;;5082299;28;20084;-79
2022/01/14 04:25:48;;;;;;;44.30;18.95;;;0.70;99.90;;;;;;5081128;28;20086;-79
2022/01/14 04:28:14;;;;;;;42.85;18.33;;;0.60;99.90;;;;;;5083345;28;20028;-79
2022/01/14 04:30:40;;;;;;;42.85;18.63;;;0.70;99.90;;;;;;5083243;28;20020;-79
2022/01/14 04:33:06;;;;;;;40.45;18.40;;;0.70;99.90;;;;;;5083460;28;20065;-79
2022/01/14 04:35:32;;;;;;;41.28;19.02;;;0.80;99.90;;;;;;5082337;28;20016;-79
2022/01/14 04:37:58;;;;;;;37.85;18.33;;;0.80;99.90;;;;;;5082980;28;20038;-79
2022/01/14 04:40:25;;;;;;;36.85;18.00;;;0.80;99.90;;;;;;5065411;28;20219;-79
2022/01/14 04:42:52;;;;;;;35.05;18.10;;;0.70;99.90;;;;;;5065305;28;20096;-79
2022/01/14 04:48:06;;;;;;;42.50;18.77;;;0.70;99.90;;;;;;5085568;28;20025;-79
2022/01/14 04:50:32;;;;;;;38.60;19.50;;;0.70;99.90;;;;;;5085497;28;20020;-79
2022/01/14 04:52:58;;;;;;;43.35;20.05;;;0.70;99.90;;;;;;5086713;28;20070;-79
2022/01/14 04:55:25;;;;;;;37.03;19.38;;;0.70;99.90;;;;;;5086847;28;20032;-79
2022/01/14 04:57:52;;;;;;;41.03;18.90;;;0.60;99.90;;;;;;5068800;28;20027;-79
2022/01/14 05:00:21;;;;;;;42.53;19.63;;;0.60;99.90;;;;;;5085090;28;20107;-79
2022/01/14 05:02:47;;;;;;;36.38;19.08;;;0.60;99.90;;;;;;5085664;28;20093;-79
2022/01/14 05:05:16;;;;;;;38.95;17.33;;;0.70;99.90;;;;;;5085173;28;20307;-79
2022/01/14 05:07:44;;;;;;;32.90;16.80;;;0.70;99.90;;;;;;5086166;28;20032;-79
2022/01/14 05:12:57;;;;;;;42.20;18.15;;;0.80;99.90;;;;;;5085486;28;20024;-79
2022/01/14 05:15:22;;;;;;;36.92;16.63;;;0.80;99.90;;;;;;5085417;28;20299;-79
2022/01/14 05:17:50;;;;;;;38.05;17.23;;;0.80;99.90;;;;;;5051886;28;20024;-79
2022/01/14 05:20:17;;;;;;;32.13;15.65;;;0.80;99.90;;;;;;5085762;28;20223;-79
2022/01/14 05:22:44;;;;;;;34.38;16.38;;;0.80;99.90;;;;;;5051770;28;20091;-80
2022/01/14 05:25:12;;;;;;;36.15;16.63;;;0.80;99.90;;;;;;5068354;28;20391;-79
2022/01/14 05:27:38;;;;;;;33.42;16.58;;;0.80;99.90;;;;;;5083095;28;20021;-79
2022/01/14 05:30:06;;;;;;;34.25;17.83;;;0.70;99.90;;;;;;5085915;28;20296;-79
2022/01/14 05:32:31;;;;;;;35.15;18.70;;;0.70;99.90;;;;;;5085254;28;20020;-80
2022/01/14 05:34:57;;;;;;;42.00;18.95;;;0.60;99.90;;;;;;5084786;28;20024;-79
2022/01/14 05:37:23;;;;;;;48.63;19.33;;;0.50;99.90;;;;;;5068758;28;20020;-79
2022/01/14 05:39:50;;;;;;;54.65;19.58;;;0.50;99.90;;;;;;5097748;28;20020;-79
2022/01/14 05:42:16;;;;;;;45.10;21.15;;;0.40;99.90;;;;;;5095886;28;20020;-79
2022/01/14 05:44:42;;;;;;;45.45;22.38;;;0.40;99.90;;;;;;5078355;28;20039;-79
2022/01/14 05:47:08;;;;;;;47.55;20.92;;;0.40;99.90;;;;;;5092356;28;20071;-79
2022/01/14 05:49:34;;;;;;;36.00;17.90;;;0.40;99.90;;;;;;5072333;28;20047;-79
2022/01/14 05:52:00;;;;;;;43.13;18.67;;;0.40;99.90;;;;;;5085756;28;20021;-79
2022/01/14 05:54:26;;;;;;;41.70;17.52;;;0.50;99.90;;;;;;5084413;28;20211;-79
2022/01/14 05:56:51;;;;;;;34.05;17.98;;;0.50;99.90;;;;;;5085418;28;20016;-79
2022/01/14 05:59:17;;;;;;;31.50;17.45;;;0.50;99.90;;;;;;5085541;28;20048;-79
2022/01/14 06:01:44;;;;;;;32.90;16.42;;;0.60;99.90;;;;;;5067550;28;20024;-79
2022/01/14 06:04:09;;;;;;;30.75;16.58;;;0.60;99.90;;;;;;5084249;28;20024;-79
2022/01/14 06:06:35;;;;;;;35.15;17.70;;;0.70;99.90;;;;;;5085855;28;20016;-79
2022/01/14 06:09:02;;;;;;;39.70;18.00;;;0.70;99.90;;;;;;5067209;28;20047;-79
2022/01/14 06:11:28;;;;;;;36.22;16.58;;;0.70;99.90;;;;;;5084005;28;20030;-79
2022/01/14 06:13:54;;;;;;;35.70;16.92;;;0.80;99.90;;;;;;5085298;28;20024;-78
2022/01/14 06:16:19;;;;;;;33.55;16.20;;;0.80;99.90;;;;;;5083948;28;20264;-79
2022/01/14 06:18:46;;;;;;;27.55;14.63;;;0.90;99.90;;;;;;5050750;28;20025;-80
2022/01/14 06:21:11;;;;;;;31.70;16.83;;;0.90;99.90;;;;;;5083321;28;20063;-79
2022/01/14 06:23:37;;;;;;;39.63;18.10;;;0.90;99.90;;;;;;5085048;28;20013;-79
2022/01/14 06:26:04;;;;;;;39.97;16.83;;;0.90;99.90;;;;;;5050510;28;20016;-79
2022/01/14 06:28:30;;;;;;;35.00;17.48;;;0.80;99.90;;;;;;5082177;28;20196;-79
2022/01/14 06:30:55;;;;;;;36.20;17.02;;;0.80;99.90;;;;;;5083492;28;20030;-79
2022/01/14 06:33:21;;;;;;;45.42;19.00;;;0.70;99.90;;;;;;5083523;28;20035;-79
2022/01/14 06:35:49;;;;;;;44.25;19.73;;;0.70;99.90;;;;;;5084628;28;20024;-79
2022/01/14 06:38:16;;;;;;;40.40;18.17;;;0.60;99.90;;;;;;5084382;28;20027;-79
2022/01/14 06:40:42;;;;;;;43.90;17.83;;;0.60;99.90;;;;;;5083226;28;20020;-79
2022/01/14 06:43:08;;;;;;;40.03;17.77;;;0.60;99.90;;;;;;5083431;28;20020;-79
2022/01/14 06:45:34;;;;;;;40.72;17.42;;;0.60;99.90;;;;;;5083274;28;20131;-80
2022/01/14 06:48:00;;;;;;;39.65;16.83;;;0.50;99.90;;;;;;5083268;28;20476;-79
2022/01/14 06:50:26;;;;;;;34.50;16.55;;;0.60;99.90;;;;;;5084290;28;20036;-79
2022/01/14 06:52:52;;;;;;;37.60;17.17;;;0.50;99.90;;;;;;5084158;28;20061;-79
2022/01/14 06:55:18;;;;;;;44.17;18.20;;;0.50;99.90;;;;;;5084503;28;20027;-79
2022/01/14 06:57:44;;;;;;;35.33;17.13;;;0.50;99.90;;;;;;5066507;28;20032;-79
2022/01/14 07:00:13;;;;;;;40.25;17.77;;;0.60;99.90;;;;;;5084071;28;20025;-78
2022/01/14 07:02:39;;;;;;;38.42;17.23;;;0.70;99.90;;;;;;5049938;28;20024;-79
2022/01/14 07:05:06;;;;;;;32.33;15.98;;;0.70;99.90;;;;;;5083230;28;20084;-78
2022/01/14 07:07:32;;;;;;;31.02;14.65;;;0.70;99.90;;;;;;5083201;28;20048;-79
2022/01/14 07:09:58;;;;;;;31.27;14.77;;;0.70;99.90;;;;;;5083131;28;20016;-78
2022/01/14 07:12:29;;;;;;;33.63;15.93;;;0.70;99.90;;;;;;5066267;28;20032;-78
2022/01/14 07:14:56;;;;;;;31.92;16.65;;;0.70;99.90;;;;;;5066711;28;20027;-79
2022/01/14 07:17:23;;;;;;;34.55;15.93;;;0.70;99.90;;;;;;5082979;28;20070;-80
2022/01/14 07:19:52;;;;;;;38.35;16.05;;;0.60;99.90;;;;;;5084124;28;20024;-79
2022/01/14 07:22:18;;;;;;;39.80;17.40;;;0.60;99.90;;;;;;5083836;28;20047;-79
2022/01/14 07:24:44;;;;;;;35.30;16.15;;;0.60;99.90;;;;;;5066041;28;20055;-79
2022/01/14 07:27:10;;;;;;;37.22;14.95;;;0.60;99.90;;;;;;5082986;28;20027;-79
2022/01/14 07:29:36;;;;;;;32.25;15.45;;;0.70;99.90;;;;;;5080745;28;20012;-79
2022/01/14 07:32:02;;;;;;;34.75;15.40;;;0.60;99.90;;;;;;5084029;28;20092;-77
2022/01/14 07:34:28;;;;;;;37.72;15.40;;;0.70;99.90;;;;;;5066298;28;20258;-80
2022/01/14 07:36:54;;;;;;;34.03;15.35;;;0.60;99.90;;;;;;5065909;28;20046;-79
2022/01/14 07:39:20;;;;;;;37.50;16.35;;;0.60;99.90;;;;;;5082575;28;20103;-77
2022/01/14 07:41:47;;;;;;;38.03;16.13;;;0.70;99.90;;;;;;5082611;28;20052;-78
2022/01/14 07:44:13;;;;;;;31.50;16.10;;;0.70;99.90;;;;;;5083966;28;20028;-79
2022/01/14 07:46:39;;;;;;;34.92;15.35;;;0.60;99.90;;;;;;5082693;28;20270;-80
2022/01/14 07:49:05;;;;;;;33.10;15.75;;;0.60;99.90;;;;;;5082776;28;20016;-79
2022/01/14 07:51:31;;;;;;;31.55;15.27;;;0.60;99.90;;;;;;5085743;28;20035;-79
2022/01/14 07:53:57;;;;;;;33.17;14.70;;;0.70;99.90;;;;;;5082910;28;20023;-77
2022/01/14 07:56:23;;;;;;;35.80;15.40;;;0.80;99.90;;;;;;5082633;28;20024;-77
2022/01/14 07:58:50;;;;;;;31.05;16.67;;;0.80;99.90;;;;;;5083402;28;20102;-78
2022/01/14 08:01:16;;;;;;;35.75;14.95;;;0.80;99.90;;;;;;5083260;28;20246;-76
2022/01/14 08:03:41;;;;;;;39.35;15.90;;;0.90;99.90;;;;;;5081952;28;20017;-77
2022/01/14 08:06:10;;;;;;;27.33;14.85;;;0.90;99.90;;;;;;5077876;28;20346;-80
2022/01/14 08:08:38;;;;;;;35.65;15.60;;;0.90;99.90;;;;;;5080525;28;20094;-79
2022/01/14 08:11:05;;;;;;;33.25;14.65;;;0.90;99.90;;;;;;5079826;28;20115;-78
2022/01/14 08:13:31;;;;;;;33.00;16.15;;;1.00;99.90;;;;;;5066106;28;20028;-79
2022/01/14 08:15:56;;;;;;;31.67;16.50;;;1.00;99.90;;;;;;5048582;28;20025;-79
2022/01/14 08:18:22;;;;;;;40.63;18.17;;;1.00;99.90;;;;;;5075597;28;20039;-81
2022/01/14 08:20:48;;;;;;;37.55;16.10;;;1.00;99.90;;;;;;5084741;28;20347;-81
2022/01/14 08:23:14;;;;;;;44.03;18.40;;;1.10;99.90;;;;;;5084568;28;20029;-77
2022/01/14 08:25:40;;;;;;;40.20;17.60;;;1.10;99.90;;;;;;5074031;28;20025;-78
2022/01/14 08:28:06;;;;;;;42.83;18.60;;;1.20;99.90;;;;;;5074270;28;20020;-77
2022/01/14 08:30:31;;;;;;;42.03;16.77;;;1.10;99.90;;;;;;5073245;28;20032;-78
2022/01/14 08:32:57;;;;;;;39.40;18.17;;;1.10;99.90;;;;;;5081967;28;20035;-76
2022/01/14 08:35:23;;;;;;;40.05;16.55;;;1.10;99.90;;;;;;5065841;28;20017;-83
2022/01/14 08:37:49;;;;;;;35.30;15.90;;;1.10;99.90;;;;;;5079327;28;20032;-75
2022/01/14 08:40:14;;;;;;;43.08;19.08;;;1.10;99.90;;;;;;5085183;28;20028;-79
2022/01/14 08:42:40;;;;;;;37.05;18.60;;;1.20;99.90;;;;;;5085130;28;20065;-79
2022/01/14 08:45:06;;;;;;;41.97;19.30;;;1.20;99.90;;;;;;5076723;28;20067;-82
2022/01/14 08:47:32;;;;;;;37.75;16.65;;;1.20;99.90;;;;;;5072831;28;20025;-76
2022/01/14 08:49:58;;;;;;;37.08;17.05;;;1.30;99.90;;;;;;5078969;28;20189;-78
2022/01/14 08:52:24;;;;;;;40.70;19.17;;;1.30;99.90;;;;;;5083058;28;20020;-73
2022/01/14 08:54:50;;;;;;;37.72;18.30;;;1.30;99.90;;;;;;5085126;28;20032;-76
2022/01/14 08:57:17;;;;;;;32.85;16.48;;;1.40;99.90;;;;;;5083139;28;20024;-72
2022/01/14 08:59:42;;;;;;;34.20;16.02;;;1.40;99.90;;;;;;5078253;28;20028;-74
2022/01/14 09:02:08;;;;;;;36.70;16.38;;;1.50;99.90;;;;;;5088662;28;20016;-72
2022/01/14 09:04:34;;;;;;;37.80;17.88;;;1.50;99.90;;;;;;5071404;28;20040;-72
2022/01/14 09:07:01;;;;;;;35.30;17.70;;;1.50;99.90;;;;;;5081781;28;20039;-74
2022/01/14 09:09:27;;;;;;;32.47;16.23;;;1.50;99.90;;;;;;5059796;28;20088;-75
2022/01/14 09:11:54;;;;;;;33.13;15.95;;;1.50;99.90;;;;;;5094698;28;20051;-72
2022/01/14 09:14:21;;;;;;;39.60;17.67;;;1.50;99.90;;;;;;5092589;28;20024;-73
2022/01/14 09:16:47;;;;;;;37.53;16.75;;;1.50;99.90;;;;;;5087464;28;20236;-75
2022/01/14 09:19:13;;;;;;;35.90;15.82;;;1.60;99.90;;;;;;5080512;28;20107;-74
2022/01/14 09:21:42;;;;;;;34.25;16.50;;;1.70;99.90;;;;;;5084127;28;20056;-78
2022/01/14 09:24:08;;;;;;;38.55;17.67;;;1.70;99.90;;;;;;5082727;28;20036;-74
2022/01/14 09:26:36;;;;;;;38.13;18.73;;;1.70;99.90;;;;;;5084945;28;20021;-75
2022/01/14 09:29:03;;;;;;;38.60;17.10;;;1.80;99.90;;;;;;5083768;28;20377;-73
2022/01/14 09:31:29;;;;;;;37.42;17.10;;;1.90;99.90;;;;;;5079355;28;20031;-76
2022/01/14 09:33:55;;;;;;;43.92;17.42;;;1.90;99.90;;;;;;5064928;28;20215;-75
2022/01/14 09:36:21;;;;;;;38.67;16.67;;;1.90;99.90;;;;;;5064677;28;20057;-72
2022/01/14 09:38:47;;;;;;;38.22;15.77;;;1.90;99.90;;;;;;5063494;28;20051;-74
2022/01/14 09:41:14;;;;;;;38.08;15.93;;;2.00;99.90;;;;;;5070224;28;20032;-76
2022/01/14 09:43:40;;;;;;;34.92;17.00;;;2.10;99.90;;;;;;5069710;28;20323;-72
2022/01/14 09:46:08;;;;;;;31.70;16.23;;;2.10;99.90;;;;;;5082894;28;20091;-71
2022/01/14 09:48:35;;;;;;;31.52;15.73;;;2.10;99.90;;;;;;5084579;28;20036;-71
2022/01/14 09:51:02;;;;;;;40.78;18.33;;;2.30;99.90;;;;;;5082645;28;20031;-73
2022/01/14 09:53:29;;;;;;;28.60;15.55;;;2.30;99.90;;;;;;5084370;28;20205;-74
2022/01/14 09:55:55;;;;;;;39.85;16.48;;;2.40;99.90;;;;;;5083562;28;20059;-73
2022/01/14 09:58:25;;;;;;;35.72;16.75;;;2.50;99.90;;;;;;5078649;28;20021;-76
2022/01/14 10:01:04;;;;;;;33.97;14.75;;;2.60;99.90;;;;;;5046330;28;20036;-74
2022/01/14 10:03:31;;;;;;;32.08;15.07;;;2.60;99.90;;;;;;5051042;28;20246;-80
2022/01/14 10:05:57;;;;;;;32.33;15.55;;;2.70;99.90;;;;;;5080540;28;20024;-78
2022/01/14 10:08:26;;;;;;;30.00;14.82;;;2.70;99.90;;;;;;5084767;28;20087;-82
2022/01/14 10:10:57;;;;;;;28.23;14.77;;;2.80;99.90;;;;;;5083088;28;20017;-77
2022/01/14 10:13:25;;;;;;;34.97;16.02;;;2.90;99.90;;;;;;5083872;28;20372;-78
2022/01/14 10:15:58;;;;;;;27.50;16.33;;;2.90;99.90;;;;;;5083134;28;20025;-75
2022/01/14 10:18:24;;;;;;;34.47;15.55;;;2.90;99.90;;;;;;5082320;28;20191;-79
2022/01/14 10:20:50;;;;;;;35.08;16.50;;;2.90;99.90;;;;;;5075144;28;20135;-76
2022/01/14 10:23:17;;;;;;;39.13;17.08;;;3.00;99.90;;;;;;5067812;28;20029;-76
2022/01/14 10:25:56;;;;;;;32.05;15.98;;;3.10;99.90;;;;;;5083573;28;20062;-76
2022/01/14 10:28:22;;;;;;;32.53;15.57;;;3.10;99.90;;;;;;5081592;28;20078;-78
2022/01/14 10:30:49;;;;;;;34.92;16.10;;;3.10;99.90;;;;;;5086462;28;20246;-78
2022/01/14 10:33:19;;;;;;;33.83;15.80;;;3.10;99.90;;;;;;5064522;28;20027;-75
2022/01/14 10:35:46;;;;;;;33.00;16.30;;;3.10;99.90;;;;;;5082120;28;20035;-75
2022/01/14 10:38:14;;;;;;;32.92;15.98;;;3.20;99.90;;;;;;5065443;28;20095;-80
2022/01/14 10:40:50;;;;;;;34.72;15.60;;;3.20;99.90;;;;;;5065004;28;20119;-74
2022/01/14 10:43:21;;;;;;;32.70;17.27;;;3.20;99.90;;;;;;5077670;28;20021;-75
2022/01/14 10:45:48;;;;;;;37.08;17.30;;;3.20;99.90;;;;;;5058927;28;20275;-74
2022/01/14 10:48:17;;;;;;;29.25;15.70;;;3.30;99.90;;;;;;5082316;28;20215;-74
2022/01/14 10:50:46;;;;;;;37.45;19.27;;;3.30;99.90;;;;;;5063777;28;20250;-75
2022/01/14 10:53:16;;;;;;;37.70;19.55;;;3.40;99.90;;;;;;5082431;28;20395;-76
2022/01/14 10:55:46;;;;;;;39.60;17.35;;;3.40;99.90;;;;;;5065649;28;20339;-76
2022/01/14 10:58:16;;;;;;;33.75;16.52;;;3.50;99.90;;;;;;5082400;28;20066;-76
2022/01/14 11:00:47;;;;;;;38.67;16.27;;;3.60;99.90;;;;;;5080848;28;20024;-77
2022/01/14 11:03:14;;;;;;;54.20;18.42;;;3.70;99.90;;;;;;5084684;28;20046;-76
2022/01/14 11:05:41;;;;;;;41.95;17.27;;;3.70;99.90;;;;;;5102028;28;20028;-75
2022/01/14 11:08:08;;;;;;;42.42;18.50;;;3.80;99.90;;;;;;5101911;28;20016;-76
2022/01/14 11:10:38;;;;;;;45.72;17.30;;;3.90;99.90;;;;;;5089392;28;20300;-77
2022/01/14 11:13:07;;;;;;;37.90;16.80;;;3.90;99.90;;;;;;5081555;28;20222;-75
2022/01/14 11:15:34;;;;;;;36.40;16.92;;;4.00;99.90;;;;;;5081357;28;20069;-74
2022/01/14 11:18:04;;;;;;;35.42;16.38;;;4.00;99.90;;;;;;5081846;28;20032;-74
2022/01/14 11:20:34;;;;;;;32.38;16.15;;;4.20;99.90;;;;;;5082023;28;20054;-77
2022/01/14 11:23:16;;;;;;;35.38;16.83;;;4.30;99.90;;;;;;5081555;28;20044;-75
2022/01/14 11:25:46;;;;;;;32.40;15.65;;;4.20;99.90;;;;;;5081575;28;20018;-73
2022/01/14 11:28:16;;;;;;;33.88;17.67;;;4.30;99.90;;;;;;5065129;28;20169;-72
2022/01/14 11:30:43;;;;;;;38.97;17.25;;;4.30;99.90;;;;;;5090909;28;20353;-72
2022/01/14 11:33:09;;;;;;;33.28;16.77;;;4.40;99.90;;;;;;5060010;28;20070;-74
2022/01/14 11:35:37;;;;;;;34.28;17.42;;;4.50;99.90;;;;;;5064924;28;20134;-77
2022/01/14 11:38:23;;;;;;;37.67;17.23;;;4.60;99.90;;;;;;5061362;28;20027;-72
2022/01/14 11:40:50;;;;;;;37.72;17.95;;;4.60;99.90;;;;;;5063753;28;20040;-72
2022/01/14 11:43:37;;;;;;;43.47;18.40;;;4.70;99.90;;;;;;5056871;28;20027;-73
2022/01/14 11:46:03;;;;;;;32.15;16.83;;;4.80;99.90;;;;;;5074607;28;20023;-71
2022/01/14 11:48:43;;;;;;;31.23;16.35;;;4.90;99.90;;;;;;5080342;28;20203;-74
2022/01/14 11:51:11;;;;;;;29.95;15.85;;;4.90;99.90;;;;;;5082617;28;20028;-77
2022/01/14 11:53:41;;;;;;;28.75;13.77;;;5.00;99.90;;;;;;5067193;28;20103;-75
2022/01/14 11:56:29;;;;;;;29.70;15.52;;;5.20;99.90;;;;;;5079136;28;20050;-77
2022/01/14 11:59:20;;;;;;;31.65;13.52;;;5.20;99.90;;;;;;5059535;28;20024;-77
2022/01/14 12:01:51;;;;;;;35.10;15.20;;;5.30;99.90;;;;;;5067554;28;20103;-74
2022/01/14 12:04:17;;;;;;;31.55;14.30;;;5.30;99.90;;;;;;5083317;28;20036;-78
2022/01/14 12:06:59;;;;;;;29.13;13.02;;;5.40;99.90;;;;;;5049840;28;20029;-76
2022/01/14 12:09:27;;;;;;;;;;;5.50;99.90;;;;;;5067841;28;20036;-76
2022/01/14 12:12:21;;;;;;;26.50;12.60;;;5.60;99.90;;;;;;5066118;28;20132;-75
2022/01/14 12:14:57;;;;;;;26.05;12.40;;;5.60;99.90;;;;;;5066581;28;20043;-73
2022/01/14 12:17:42;;;;;;;30.02;12.15;;;5.70;99.90;;;;;;5081624;28;20052;-77
2022/01/14 12:20:17;;;;;;;27.63;13.40;;;5.70;99.90;;;;;;5073145;28;20025;-79
2022/01/14 12:23:06;;;;;;;27.63;11.93;;;5.70;99.90;;;;;;5051083;28;20236;-75
2022/01/14 12:25:41;;;;;;;33.78;13.30;;;5.70;99.90;;;;;;5064273;28;20051;-78
2022/01/14 12:28:25;;;;;;;27.13;12.73;;;5.80;99.90;;;;;;5080072;28;20036;-76
2022/01/14 12:31:01;;;;;;;28.55;12.48;;;5.80;99.90;;;;;;5097081;28;20038;-74
2022/01/14 12:33:48;;;;;;;27.73;11.77;;;5.90;99.90;;;;;;5075700;28;20088;-75
2022/01/14 12:36:23;;;;;;;24.33;12.45;;;6.00;99.90;;;;;;5079639;28;20023;-75
2022/01/14 12:38:51;;;;;;;24.45;11.60;;;6.10;99.90;;;;;;5099693;28;20023;-76
2022/01/14 12:41:23;;;;;;;22.90;10.82;;;6.20;99.90;;;;;;5097238;28;20039;-78
2022/01/14 12:43:52;;;;;;;26.52;10.90;;;6.20;99.90;;;;;;5077409;28;20023;-73
2022/01/14 12:46:53;;;;;;;23.77;10.75;;;6.30;99.90;;;;;;5091227;28;20231;-78
2022/01/14 12:49:24;;;;;;;23.52;10.98;;;6.40;99.90;;;;;;5073879;28;20047;-75
2022/01/14 12:52:07;;;;;;;23.08;9.52;;;6.40;99.90;;;;;;5085579;28;20266;-76
2022/01/14 12:54:37;;;;;;;29.13;10.73;;;6.40;99.90;;;;;;5085766;28;20044;-76
2022/01/14 12:57:03;;;;;;;25.65;10.93;;;6.50;99.90;;;;;;5085359;28;20068;-76
2022/01/14 12:59:49;;;;;;;22.70;9.98;;;6.60;99.90;;;;;;5085319;28;20188;-78
2022/01/14 13:02:25;;;;;;;17.83;9.60;;;6.60;99.90;;;;;;5076019;28;20055;-78
2022/01/14 13:05:19;;;;;;;20.05;10.13;;;6.70;99.90;;;;;;5064312;28;20025;-77
2022/01/14 13:07:46;;;;;;;19.08;8.77;;;6.80;99.90;;;;;;5064128;28;20062;-78
2022/01/14 13:10:13;;;;;;;21.13;8.57;;;6.80;99.90;;;;;;5064167;28;20319;-76
2022/01/14 13:12:41;;;;;;;18.63;8.27;;;6.90;99.90;;;;;;5097987;28;20100;-75
2022/01/14 13:15:14;;;;;;;18.52;8.32;;;6.90;99.90;;;;;;5084574;28;20024;-74